createdAt,value
2022-07-31T00:00:43.655Z,97229.13
2022-07-31T00:03:12.182Z,97226.31
2022-07-31T00:05:42.528Z,97227.78
2022-07-31T00:08:12.185Z,97226.09
2022-07-31T00:10:40.373Z,97228.41
2022-07-31T00:13:08.473Z,97224.75
2022-07-31T00:15:38.622Z,97221.13
2022-07-31T00:18:08.795Z,97212.19
2022-07-31T00:20:37.974Z,97224.09
2022-07-31T00:23:06.356Z,97217.06
2022-07-31T00:25:35.810Z,97211.16
2022-07-31T00:28:04.193Z,97217.16
2022-07-31T00:30:32.437Z,97215.94
2022-07-31T00:33:00.524Z,97213.84
2022-07-31T00:35:28.755Z,97222.94
2022-07-31T00:38:12.370Z,97217.03
2022-07-31T00:40:50.220Z,97218.97
2022-07-31T00:43:19.426Z,97216.16
2022-07-31T00:45:48.103Z,97218.16
2022-07-31T00:49:00.692Z,97216.16
2022-07-31T00:51:29.093Z,97221.59
2022-07-31T00:53:59.397Z,97225.09
2022-07-31T00:56:29.481Z,97223.38
2022-07-31T00:58:59.736Z,97218.75
2022-07-31T01:01:28.286Z,97221.13
2022-07-31T01:03:56.493Z,97226.09
2022-07-31T01:06:24.614Z,97216.72
2022-07-31T01:08:53.478Z,97214.00
2022-07-31T01:11:24.743Z,97221.34
2022-07-31T01:13:57.055Z,97228.38
2022-07-31T01:16:27.751Z,97223.19
2022-07-31T01:18:57.038Z,97218.41
2022-07-31T01:21:28.924Z,97222.25
2022-07-31T01:24:23.359Z,97224.97
2022-07-31T01:27:07.868Z,97223.38
2022-07-31T01:29:39.842Z,97223.38
2022-07-31T01:32:11.417Z,97226.78
2022-07-31T01:34:44.060Z,97230.84
2022-07-31T01:37:15.720Z,97233.81
2022-07-31T01:39:47.629Z,97237.63
2022-07-31T01:42:18.245Z,97236.59
2022-07-31T01:44:49.772Z,97236.69
2022-07-31T01:47:21.035Z,97226.16
2022-07-31T01:49:50.441Z,97231.47
2022-07-31T01:52:21.167Z,97225.31
2022-07-31T01:54:50.009Z,97220.69
2022-07-31T01:57:18.847Z,97219.88
2022-07-31T01:59:55.335Z,97218.97
2022-07-31T02:02:42.465Z,97224.13
2022-07-31T02:05:12.439Z,97224.13
2022-07-31T02:07:41.806Z,97224.66
2022-07-31T02:10:11.917Z,97218.31
2022-07-31T02:12:41.724Z,97221.38
2022-07-31T02:15:12.920Z,97220.88
2022-07-31T02:17:45.878Z,97221.91
2022-07-31T02:20:20.376Z,97225.03
2022-07-31T02:22:50.281Z,97218.06
2022-07-31T02:25:18.548Z,97221.78
2022-07-31T02:27:57.026Z,97217.84
2022-07-31T02:30:38.884Z,97221.00
2022-07-31T02:33:09.984Z,97222.91
2022-07-31T02:35:39.283Z,97216.22
2022-07-31T02:38:17.185Z,97220.06
2022-07-31T02:40:52.500Z,97220.28
2022-07-31T02:43:21.266Z,97220.66
2022-07-31T02:45:50.850Z,97217.16
2022-07-31T02:48:19.228Z,97224.69
2022-07-31T02:50:50.756Z,97222.31
2022-07-31T02:53:19.063Z,97228.28
2022-07-31T02:55:47.858Z,97228.47
2022-07-31T02:58:16.020Z,97217.25
2022-07-31T03:00:46.304Z,97225.75
2022-07-31T03:03:16.646Z,97224.16
2022-07-31T03:05:45.356Z,97220.31
2022-07-31T03:08:14.382Z,97221.16
2022-07-31T03:10:45.258Z,97226.94
2022-07-31T03:13:13.498Z,97228.06
2022-07-31T03:15:50.754Z,97219.59
2022-07-31T03:18:21.708Z,97218.00
2022-07-31T03:20:52.581Z,97220.41
2022-07-31T03:23:22.964Z,97228.06
2022-07-31T03:26:05.650Z,97217.69
2022-07-31T03:28:35.020Z,97212.72
2022-07-31T03:31:03.387Z,97224.06
2022-07-31T03:33:33.839Z,97215.94
2022-07-31T03:36:02.115Z,97220.69
2022-07-31T03:38:39.273Z,97214.16
2022-07-31T03:41:13.042Z,97216.22
2022-07-31T03:43:44.280Z,97208.53
2022-07-31T03:46:19.278Z,97215.53
2022-07-31T03:48:52.117Z,97215.53
2022-07-31T03:51:20.926Z,97213.03
2022-07-31T03:53:49.369Z,97219.31
2022-07-31T03:56:45.409Z,97212.69
2022-07-31T03:59:16.072Z,97219.88
2022-07-31T04:01:58.260Z,97221.16
2022-07-31T04:04:47.575Z,97222.75
2022-07-31T04:07:15.910Z,97225.13
2022-07-31T04:09:44.079Z,97226.84
2022-07-31T04:12:13.877Z,97232.41
2022-07-31T04:14:41.942Z,97227.31
2022-07-31T04:17:10.255Z,97232.28
2022-07-31T04:19:39.458Z,97232.91
2022-07-31T04:22:09.574Z,97231.31
2022-07-31T04:24:39.027Z,97229.59
2022-07-31T04:27:16.826Z,97225.38
2022-07-31T04:29:45.333Z,97231.91
2022-07-31T04:32:13.467Z,97230.47
2022-07-31T04:34:48.070Z,97225.84
2022-07-31T04:37:18.041Z,97236.69
2022-07-31T04:39:46.216Z,97230.19
2022-07-31T04:42:14.312Z,97230.78
2022-07-31T04:44:43.097Z,97230.31
2022-07-31T04:47:11.170Z,97233.50
2022-07-31T04:49:44.361Z,97231.69
2022-07-31T04:52:17.101Z,97233.13
2022-07-31T04:54:47.558Z,97239.03
2022-07-31T04:57:21.400Z,97237.91
2022-07-31T04:59:57.769Z,97249.69
2022-07-31T05:02:27.155Z,97246.97
2022-07-31T05:04:56.564Z,97252.09
2022-07-31T05:07:28.874Z,97247.75
2022-07-31T05:09:58.749Z,97250.91
2022-07-31T05:12:27.378Z,97241.75
2022-07-31T05:14:56.188Z,97243.50
2022-07-31T05:17:24.314Z,97235.50
2022-07-31T05:20:12.511Z,97239.59
2022-07-31T05:23:20.741Z,97242.91
2022-07-31T05:25:58.258Z,97242.91
2022-07-31T05:28:29.639Z,97246.53
2022-07-31T05:30:58.998Z,97241.59
2022-07-31T05:33:28.525Z,97242.97
2022-07-31T05:35:57.206Z,97233.56
2022-07-31T05:38:27.970Z,97236.22
2022-07-31T05:41:16.413Z,97239.84
2022-07-31T05:44:02.864Z,97246.66
2022-07-31T05:46:36.120Z,97242.19
2022-07-31T05:49:04.562Z,97245.34
2022-07-31T05:51:32.685Z,97244.44
2022-07-31T05:54:02.423Z,97241.28
2022-07-31T05:56:49.034Z,97250.03
2022-07-31T05:59:20.808Z,97245.84
2022-07-31T06:01:50.032Z,97246.34
2022-07-31T06:04:18.235Z,97255.22
2022-07-31T06:06:47.895Z,97252.75
2022-07-31T06:09:17.357Z,97250.63
2022-07-31T06:11:47.141Z,97251.53
2022-07-31T06:14:15.397Z,97253.00
2022-07-31T06:17:09.057Z,97254.59
2022-07-31T06:19:39.434Z,97268.38
2022-07-31T06:22:08.134Z,97268.88
2022-07-31T06:24:38.714Z,97265.28
2022-07-31T06:27:20.801Z,97254.63
2022-07-31T06:30:03.086Z,97257.94
2022-07-31T06:32:31.329Z,97259.19
2022-07-31T06:34:59.443Z,97263.50
2022-07-31T06:37:29.347Z,97262.16
2022-07-31T06:39:59.643Z,97262.63
2022-07-31T06:42:46.739Z,97256.72
2022-07-31T06:45:25.201Z,97262.41
2022-07-31T06:48:23.196Z,97256.53
2022-07-31T06:51:29.111Z,97256.75
2022-07-31T06:53:52.510Z,97255.50
2022-07-31T06:56:22.879Z,97255.72
2022-07-31T06:58:51.049Z,97251.28
2022-07-31T07:01:19.219Z,97251.47
2022-07-31T07:03:47.816Z,97254.00
2022-07-31T07:06:16.158Z,97258.16
2022-07-31T07:08:44.438Z,97259.16
2022-07-31T07:11:16.027Z,97258.94
2022-07-31T07:13:46.929Z,97266.19
2022-07-31T07:16:18.048Z,97265.22
2022-07-31T07:18:46.410Z,97267.06
2022-07-31T07:21:14.557Z,97279.72
2022-07-31T07:23:42.810Z,97272.13
2022-07-31T07:26:25.330Z,97273.78
2022-07-31T07:28:54.821Z,97256.94
2022-07-31T07:31:23.571Z,97262.66
2022-07-31T07:33:52.039Z,97258.88
2022-07-31T07:36:25.672Z,97260.66
2022-07-31T07:38:59.558Z,97259.38
2022-07-31T07:41:28.113Z,97263.75
2022-07-31T07:43:57.571Z,97258.72
2022-07-31T07:46:28.195Z,97253.66
2022-07-31T07:49:03.080Z,97257.09
2022-07-31T07:51:58.839Z,97250.31
2022-07-31T07:54:40.415Z,97253.94
2022-07-31T07:57:27.094Z,97249.69
2022-07-31T07:59:56.985Z,97253.22
2022-07-31T08:02:44.895Z,97253.97
2022-07-31T08:05:32.989Z,97244.72
2022-07-31T08:08:01.197Z,97240.28
2022-07-31T08:10:47.694Z,97236.13
2022-07-31T08:13:21.094Z,97233.03
2022-07-31T08:16:09.088Z,97235.22
2022-07-31T08:18:45.982Z,97231.94
2022-07-31T08:21:14.277Z,97233.88
2022-07-31T08:23:42.333Z,97238.88
2022-07-31T08:26:11.547Z,97236.63
2022-07-31T08:28:50.531Z,97242.00
2022-07-31T08:31:22.923Z,97240.28
2022-07-31T08:34:10.871Z,97238.19
2022-07-31T08:36:59.081Z,97236.53
2022-07-31T08:39:27.215Z,97234.38
2022-07-31T08:42:07.280Z,97226.03
2022-07-31T08:44:36.904Z,97227.00
2022-07-31T08:47:09.112Z,97227.41
2022-07-31T08:49:41.360Z,97228.03
2022-07-31T08:52:10.605Z,97224.28
2022-07-31T08:54:57.002Z,97229.31
2022-07-31T08:57:26.938Z,97227.97
2022-07-31T08:59:55.511Z,97227.91
2022-07-31T09:02:25.061Z,97228.47
2022-07-31T09:05:22.132Z,97225.25
2022-07-31T09:07:50.523Z,97222.34
2022-07-31T09:10:23.343Z,97219.38
2022-07-31T09:12:52.333Z,97216.84
2022-07-31T09:15:22.475Z,97210.75
2022-07-31T09:17:54.240Z,97212.53
2022-07-31T09:20:24.720Z,97216.56
2022-07-31T09:23:06.089Z,97200.94
2022-07-31T09:25:35.969Z,97195.56
2022-07-31T09:28:05.779Z,97202.59
2022-07-31T09:30:35.108Z,97186.75
2022-07-31T09:33:54.304Z,97187.91
2022-07-31T09:36:48.739Z,97198.31
2022-07-31T09:39:52.590Z,97190.31
2022-07-31T09:42:45.510Z,97191.63
2022-07-31T09:45:22.862Z,97185.41
2022-07-31T09:48:03.997Z,97185.00
2022-07-31T09:50:34.586Z,97183.97
2022-07-31T09:53:02.752Z,97180.13
2022-07-31T09:55:33.691Z,97173.22
2022-07-31T09:58:03.082Z,97174.03
2022-07-31T10:00:38.804Z,97170.03
2022-07-31T10:03:07.316Z,97175.69
2022-07-31T10:05:38.185Z,97167.50
2022-07-31T10:08:07.017Z,97164.72
2022-07-31T10:10:55.060Z,97161.59
2022-07-31T10:13:45.684Z,97156.63
2022-07-31T10:16:39.000Z,97144.59
2022-07-31T10:19:12.305Z,97150.53
2022-07-31T10:22:02.797Z,97145.84
2022-07-31T10:24:42.183Z,97149.38
2022-07-31T10:27:11.063Z,97147.84
2022-07-31T10:29:42.317Z,97139.63
2022-07-31T10:32:11.258Z,97144.34
2022-07-31T10:35:02.068Z,97141.72
2022-07-31T10:38:02.858Z,97146.47
2022-07-31T10:40:45.301Z,97145.59
2022-07-31T10:43:21.641Z,97137.72
2022-07-31T10:46:06.987Z,97142.09
2022-07-31T10:48:53.417Z,97133.53
2022-07-31T10:51:47.740Z,97126.91
2022-07-31T10:54:58.197Z,97124.19
2022-07-31T10:58:08.286Z,97121.44
2022-07-31T11:00:52.810Z,97122.25
2022-07-31T11:03:22.626Z,97124.22
2022-07-31T11:06:09.355Z,97121.47
2022-07-31T11:08:55.990Z,97109.28
2022-07-31T11:11:57.828Z,97104.97
2022-07-31T11:14:46.338Z,97119.16
2022-07-31T11:18:22.428Z,97113.69
2022-07-31T11:20:27.884Z,97108.97
2022-07-31T11:23:00.790Z,97105.06
2022-07-31T11:25:31.077Z,97109.00
2022-07-31T11:28:12.081Z,97094.03
2022-07-31T11:30:50.994Z,97095.63
2022-07-31T11:33:41.742Z,97098.38
2022-07-31T11:36:12.601Z,97095.22
2022-07-31T11:38:41.982Z,97090.91
2022-07-31T11:41:11.242Z,97092.88
2022-07-31T11:43:47.424Z,97092.09
2022-07-31T11:46:20.158Z,97083.81
2022-07-31T11:48:48.727Z,97078.31
2022-07-31T11:51:20.268Z,97078.31
2022-07-31T11:53:54.086Z,97085.75
2022-07-31T11:56:27.599Z,97084.19
2022-07-31T11:58:58.394Z,97083.38
2022-07-31T12:01:28.346Z,97081.03
2022-07-31T12:03:57.494Z,97078.28
2022-07-31T12:06:36.659Z,97075.09
2022-07-31T12:09:05.471Z,97066.41
2022-07-31T12:11:33.627Z,97064.81
2022-07-31T12:14:03.070Z,97058.09
2022-07-31T12:16:40.228Z,97059.22
2022-07-31T12:19:08.809Z,97049.72
2022-07-31T12:21:39.789Z,97056.84
2022-07-31T12:24:11.838Z,97049.75
2022-07-31T12:26:40.105Z,97047.28
2022-07-31T12:29:10.995Z,97058.25
2022-07-31T12:31:46.302Z,97048.34
2022-07-31T12:34:14.467Z,97046.06
2022-07-31T12:36:43.228Z,97036.91
2022-07-31T12:39:12.746Z,97046.34
2022-07-31T12:41:44.139Z,97043.13
2022-07-31T12:44:14.866Z,97043.19
2022-07-31T12:46:49.881Z,97050.38
2022-07-31T12:49:18.130Z,97045.81
2022-07-31T12:51:47.234Z,97049.38
2022-07-31T12:54:16.463Z,97056.78
2022-07-31T12:56:45.408Z,97050.47
2022-07-31T12:59:15.347Z,97061.00
2022-07-31T13:01:43.545Z,97041.69
2022-07-31T13:04:18.782Z,97040.03
2022-07-31T13:06:48.980Z,97035.28
2022-07-31T13:09:17.170Z,97033.66
2022-07-31T13:11:46.851Z,97036.72
2022-07-31T13:14:18.074Z,97031.94
2022-07-31T13:16:46.451Z,97030.16
2022-07-31T13:19:14.940Z,97039.31
2022-07-31T13:21:48.827Z,97041.72
2022-07-31T13:24:19.328Z,97036.94
2022-07-31T13:26:48.162Z,97033.88
2022-07-31T13:29:17.755Z,97035.47
2022-07-31T13:31:46.713Z,97030.72
2022-07-31T13:34:14.906Z,97015.31
2022-07-31T13:36:43.157Z,97025.09
2022-07-31T13:39:11.448Z,97026.72
2022-07-31T13:41:40.463Z,97024.28
2022-07-31T13:44:09.556Z,97023.41
2022-07-31T13:46:39.046Z,97028.19
2022-07-31T13:49:10.433Z,97014.00
2022-07-31T13:51:39.386Z,97010.88
2022-07-31T13:54:07.917Z,97012.81
2022-07-31T13:56:41.955Z,97014.28
2022-07-31T13:59:12.413Z,97003.63
2022-07-31T14:02:03.620Z,97009.50
2022-07-31T14:04:32.709Z,96999.06
2022-07-31T14:07:07.246Z,96993.00
2022-07-31T14:09:36.060Z,96985.72
2022-07-31T14:12:05.890Z,96991.44
2022-07-31T14:14:34.271Z,96986.66
2022-07-31T14:17:03.727Z,96987.47
2022-07-31T14:19:41.007Z,96994.25
2022-07-31T14:22:14.182Z,96994.94
2022-07-31T14:24:45.629Z,96989.59
2022-07-31T14:27:20.588Z,96988.50
2022-07-31T14:29:48.807Z,96987.81
2022-07-31T14:32:19.403Z,96989.97
2022-07-31T14:34:47.777Z,96988.88
2022-07-31T14:37:15.846Z,96991.91
2022-07-31T14:39:44.076Z,96991.25
2022-07-31T14:42:12.697Z,96998.41
2022-07-31T14:44:42.439Z,96991.22
2022-07-31T14:47:11.149Z,96997.34
2022-07-31T14:50:06.673Z,96991.72
2022-07-31T14:52:30.144Z,96985.00
2022-07-31T14:54:59.048Z,96986.16
2022-07-31T14:57:27.504Z,96992.44
2022-07-31T14:59:55.611Z,96988.31
2022-07-31T15:02:23.667Z,96989.75
2022-07-31T15:04:53.200Z,96989.91
2022-07-31T15:07:41.158Z,96987.59
2022-07-31T15:10:10.775Z,96984.09
2022-07-31T15:12:39.129Z,96977.59
2022-07-31T15:15:08.323Z,96977.16
2022-07-31T15:17:36.465Z,96967.94
2022-07-31T15:20:06.890Z,96978.59
2022-07-31T15:22:34.970Z,96972.47
2022-07-31T15:25:03.062Z,96963.13
2022-07-31T15:27:31.111Z,96970.91
2022-07-31T15:30:04.759Z,96971.06
2022-07-31T15:32:36.278Z,96961.47
2022-07-31T15:35:07.228Z,96944.56
2022-07-31T15:37:36.634Z,96955.56
2022-07-31T15:40:08.995Z,96954.22
2022-07-31T15:42:40.313Z,96953.00
2022-07-31T15:45:11.857Z,96953.41
2022-07-31T15:47:40.858Z,96944.13
2022-07-31T15:50:13.165Z,96933.34
2022-07-31T15:52:41.640Z,96937.69
2022-07-31T15:55:10.532Z,96945.63
2022-07-31T15:57:38.874Z,96940.94
2022-07-31T16:00:09.574Z,96932.59
2022-07-31T16:02:42.412Z,96930.94
2022-07-31T16:05:21.808Z,96928.97
2022-07-31T16:08:28.878Z,96933.53
2022-07-31T16:10:52.636Z,96934.75
2022-07-31T16:13:22.842Z,96935.19
2022-07-31T16:15:50.975Z,96928.56
2022-07-31T16:18:19.715Z,96924.16
2022-07-31T16:20:49.146Z,96926.28
2022-07-31T16:23:17.220Z,96920.06
2022-07-31T16:25:45.358Z,96926.50
2022-07-31T16:28:13.492Z,96916.31
2022-07-31T16:30:42.361Z,96916.94
2022-07-31T16:33:10.452Z,96912.78
2022-07-31T16:35:38.501Z,96910.75
2022-07-31T16:38:08.310Z,96916.16
2022-07-31T16:40:36.408Z,96911.56
2022-07-31T16:43:51.029Z,96910.97
2022-07-31T16:45:54.195Z,96905.19
2022-07-31T16:48:22.417Z,96909.16
2022-07-31T16:50:53.597Z,96908.59
2022-07-31T16:54:10.583Z,96905.66
2022-07-31T16:56:12.024Z,96898.03
2022-07-31T16:58:40.150Z,96904.56
2022-07-31T17:01:58.525Z,96899.56
2022-07-31T17:04:00.402Z,96912.06
2022-07-31T17:06:36.171Z,96903.44
2022-07-31T17:09:15.956Z,96902.25
2022-07-31T17:11:46.671Z,96902.63
2022-07-31T17:14:14.793Z,96894.81
2022-07-31T17:16:47.205Z,96902.13
2022-07-31T17:19:16.091Z,96895.84
2022-07-31T17:21:44.818Z,96913.31
2022-07-31T17:24:15.992Z,96907.16
2022-07-31T17:26:45.270Z,96908.03
2022-07-31T17:29:13.638Z,96906.69
2022-07-31T17:31:41.789Z,96901.09
2022-07-31T17:34:09.835Z,96900.69
2022-07-31T17:36:38.265Z,96905.19
2022-07-31T17:39:06.528Z,96904.41
2022-07-31T17:41:35.926Z,96903.53
2022-07-31T17:44:03.973Z,96910.63
2022-07-31T17:46:36.452Z,96903.88
2022-07-31T17:49:19.670Z,96904.75
2022-07-31T17:51:57.907Z,96903.06
2022-07-31T17:54:28.305Z,96912.06
2022-07-31T17:56:57.832Z,96909.28
2022-07-31T17:59:26.164Z,96917.59
2022-07-31T18:01:59.673Z,96906.56
2022-07-31T18:04:28.066Z,96907.41
2022-07-31T18:06:56.256Z,96912.53
2022-07-31T18:09:24.530Z,96917.31
2022-07-31T18:11:53.340Z,96912.59
2022-07-31T18:14:24.481Z,96919.31
2022-07-31T18:16:53.753Z,96925.31
2022-07-31T18:19:22.592Z,96923.00
2022-07-31T18:21:51.252Z,96922.25
2022-07-31T18:24:19.389Z,96918.78
2022-07-31T18:26:47.608Z,96920.00
2022-07-31T18:29:16.917Z,96923.22
2022-07-31T18:31:46.793Z,96915.72
2022-07-31T18:34:15.516Z,96921.69
2022-07-31T18:36:44.182Z,96912.25
2022-07-31T18:39:12.382Z,96917.03
2022-07-31T18:41:44.544Z,96915.88
2022-07-31T18:44:16.699Z,96916.31
2022-07-31T18:46:46.196Z,96913.19
2022-07-31T18:51:00.670Z,96916.41
2022-07-31T18:52:03.230Z,96921.19
2022-07-31T18:54:31.675Z,96914.13
2022-07-31T18:56:59.822Z,96922.06
2022-07-31T18:59:28.248Z,96917.38
2022-07-31T19:01:57.857Z,96917.41
2022-07-31T19:04:26.097Z,96917.47
2022-07-31T19:06:54.728Z,96924.19
2022-07-31T19:09:24.961Z,96928.56
2022-07-31T19:11:58.559Z,96920.72
2022-07-31T19:14:34.214Z,96922.31
2022-07-31T19:17:04.119Z,96928.22
2022-07-31T19:19:42.615Z,96936.94
2022-07-31T19:22:20.929Z,96927.50
2022-07-31T19:24:49.492Z,96922.41
2022-07-31T19:27:17.597Z,96938.19
2022-07-31T19:29:46.008Z,96930.34
2022-07-31T19:32:15.715Z,96929.56
2022-07-31T19:34:48.097Z,96931.13
2022-07-31T19:37:20.630Z,96930.34
2022-07-31T19:39:49.283Z,96935.88
2022-07-31T19:42:17.418Z,96939.03
2022-07-31T19:44:45.496Z,96937.47
2022-07-31T19:47:14.948Z,96935.94
2022-07-31T19:49:44.713Z,96943.41
2022-07-31T19:52:12.983Z,96936.72
2022-07-31T19:54:41.158Z,96946.97
2022-07-31T19:57:10.901Z,96944.63
2022-07-31T19:59:39.059Z,96938.34
2022-07-31T20:02:07.821Z,96942.28
2022-07-31T20:04:37.802Z,96939.13
2022-07-31T20:07:05.903Z,96939.88
2022-07-31T20:09:33.999Z,96939.13
2022-07-31T20:12:02.199Z,96945.00
2022-07-31T20:14:30.575Z,96936.78
2022-07-31T20:16:58.759Z,96933.22
2022-07-31T20:19:26.836Z,96935.19
2022-07-31T20:21:57.556Z,96922.22
2022-07-31T20:24:27.063Z,96929.69
2022-07-31T20:26:55.436Z,96939.91
2022-07-31T20:29:23.637Z,96932.06
2022-07-31T20:31:53.490Z,96931.25
2022-07-31T20:34:22.521Z,96935.16
2022-07-31T20:36:50.648Z,96930.47
2022-07-31T20:39:23.456Z,96924.56
2022-07-31T20:41:55.623Z,96928.44
2022-07-31T20:44:23.692Z,96922.94
2022-07-31T20:46:51.784Z,96921.34
2022-07-31T20:49:35.705Z,96928.03
2022-07-31T20:52:04.866Z,96922.50
2022-07-31T20:54:35.006Z,96918.56
2022-07-31T20:57:03.335Z,96919.75
2022-07-31T20:59:31.660Z,96918.94
2022-07-31T21:01:59.761Z,96920.88
2022-07-31T21:04:27.829Z,96920.09
2022-07-31T21:06:55.897Z,96920.09
2022-07-31T21:09:24.067Z,96920.06
2022-07-31T21:11:53.668Z,96920.03
2022-07-31T21:14:21.739Z,96923.19
2022-07-31T21:16:49.858Z,96918.44
2022-07-31T21:19:17.985Z,96912.56
2022-07-31T21:21:46.077Z,96918.03
2022-07-31T21:24:14.552Z,96916.09
2022-07-31T21:26:42.872Z,96906.59
2022-07-31T21:29:12.871Z,96904.25
2022-07-31T21:31:48.929Z,96905.00
2022-07-31T21:34:18.829Z,96901.03
2022-07-31T21:36:48.366Z,96905.75
2022-07-31T21:39:18.972Z,96905.69
2022-07-31T21:41:47.742Z,96905.69
2022-07-31T21:44:18.760Z,96901.75
2022-07-31T21:46:51.538Z,96897.03
2022-07-31T21:49:21.303Z,96901.72
2022-07-31T21:51:50.029Z,96896.59
2022-07-31T21:54:19.003Z,96900.91
2022-07-31T21:56:47.077Z,96902.81
2022-07-31T21:59:15.443Z,96905.13
2022-07-31T22:01:57.548Z,96911.78
2022-07-31T22:04:29.141Z,96909.38
2022-07-31T22:07:20.286Z,96906.63
2022-07-31T22:09:48.368Z,96901.84
2022-07-31T22:12:16.432Z,96903.75
2022-07-31T22:14:44.551Z,96902.94
2022-07-31T22:17:14.035Z,96906.06
2022-07-31T22:19:47.376Z,96906.81
2022-07-31T22:22:16.622Z,96905.97
2022-07-31T22:24:45.339Z,96902.03
2022-07-31T22:27:32.240Z,96909.81
2022-07-31T22:30:00.469Z,96904.31
2022-07-31T22:32:30.339Z,96903.91
2022-07-31T22:34:58.460Z,96901.94
2022-07-31T22:37:27.259Z,96905.41
2022-07-31T22:39:55.928Z,96902.22
2022-07-31T22:42:24.350Z,96894.00
2022-07-31T22:44:52.547Z,96901.78
2022-07-31T22:47:20.843Z,96896.31
2022-07-31T22:50:15.704Z,96897.03
2022-07-31T22:52:44.876Z,96896.66
2022-07-31T22:55:13.705Z,96897.81
2022-07-31T22:57:43.857Z,96905.63
2022-07-31T23:00:14.656Z,96895.41
2022-07-31T23:02:43.988Z,96895.41
2022-07-31T23:05:12.413Z,96899.31
2022-07-31T23:07:41.886Z,96887.53
2022-07-31T23:10:12.372Z,96889.41
2022-07-31T23:12:40.590Z,96896.84
2022-07-31T23:15:08.946Z,96896.06
2022-07-31T23:17:37.200Z,96898.41
2022-07-31T23:20:06.575Z,96898.41
2022-07-31T23:22:34.917Z,96898.41
2022-07-31T23:25:04.854Z,96900.72
2022-07-31T23:27:33.211Z,96896.81
2022-07-31T23:30:02.115Z,96890.53
2022-07-31T23:32:30.533Z,96886.94
2022-07-31T23:34:58.605Z,96893.53
2022-07-31T23:37:26.662Z,96895.50
2022-07-31T23:39:54.750Z,96891.94
2022-07-31T23:42:38.118Z,96890.78
2022-07-31T23:45:08.187Z,96896.59
2022-07-31T23:47:45.533Z,96898.59
2022-07-31T23:50:15.021Z,96890.00
2022-07-31T23:52:43.093Z,96886.47
2022-07-31T23:55:11.277Z,96882.50
2022-07-31T23:57:40.725Z,96884.81
